City Airport Manchester


Codes: EGCB/
Name: City Airport Manchester
City: Manchester / Salford
Country: United Kingdom
Elevation: 73 ft.
Website:
Wikipedia:

Photos at City Airport Manchester


   Photos courtesy of SpottingLog. You can add your own sightings and photos by signing up for a free trial today.



G-CFKB, 09-Oct-2023
© William Boyle

G-RJMC, 09-Oct-2023
© William Boyle

G-BBYH, 09-Oct-2023
© William Boyle

G-DLAD, 09-Oct-2023
© William Boyle

G-ODHB, 06-Oct-2023
© William Boyle

G-SPHU, 06-Oct-2023
© William Boyle

G-BMIV, 06-Jun-2023
© William Boyle

G-EMHN, 06-Jun-2023
© William Boyle

G-XWEB, 06-Jun-2023
© William Boyle

ZS-SUB, 31-May-2023
© William Boyle

G-ISHA, 20-Jun-2021
© George Hall

G-LACB, 20-Jun-2021
© George Hall


Weather at City Airport Manchester


Time (UTC)DescriptionTempratureWindCloud coverageVisibilityPressureHumidity
26-Jun-2024 00:00Overcast Clouds18°C2 mph, W100%10000m1017hPa85%
26-Jun-2024 03:00Overcast Clouds17°C2 mph, W93%10000m1016hPa87%
26-Jun-2024 06:00Overcast Clouds18°C2 mph, E93%10000m1015hPa82%
26-Jun-2024 09:00Overcast Clouds21°C4 mph, SE95%10000m1014hPa63%
26-Jun-2024 12:00Broken Clouds25°C9 mph, S82%10000m1012hPa48%
26-Jun-2024 15:00Broken Clouds26°C9 mph, S51%10000m1010hPa48%
26-Jun-2024 18:00Light Rain25°C9 mph, S44%10000m1008hPa57%
26-Jun-2024 21:00Light Rain20°C4 mph, S74%10000m1008hPa89%
27-Jun-2024 00:00Light Rain18°C2 mph, SW87%10000m1007hPa95%
27-Jun-2024 03:00Overcast Clouds16°C4 mph, SW100%10000m1006hPa95%
27-Jun-2024 06:00Overcast Clouds15°C7 mph, SW100%10000m1005hPa90%
27-Jun-2024 09:00Light Rain18°C11 mph, SW100%10000m1005hPa57%
27-Jun-2024 12:00Broken Clouds21°C16 mph, SW51%10000m1004hPa42%
27-Jun-2024 15:00Light Rain18°C16 mph, SW95%10000m1004hPa58%
27-Jun-2024 18:00Light Rain17°C13 mph, SW90%10000m1004hPa67%
27-Jun-2024 21:00Light Rain13°C13 mph, SW86%10000m1006hPa88%
28-Jun-2024 00:00Light Rain13°C16 mph, W93%10000m1007hPa88%
28-Jun-2024 03:00Light Rain12°C16 mph, W100%10000m1009hPa85%
28-Jun-2024 06:00Light Rain12°C13 mph, W100%10000m1011hPa83%
28-Jun-2024 09:00Light Rain13°C13 mph, W100%10000m1013hPa79%
28-Jun-2024 12:00Light Rain15°C13 mph, W100%10000m1015hPa59%
28-Jun-2024 15:00Scattered Clouds18°C11 mph, W50%10000m1015hPa42%
28-Jun-2024 18:00Broken Clouds17°C9 mph, W61%10000m1015hPa48%
28-Jun-2024 21:00Overcast Clouds14°C7 mph, SW91%10000m1015hPa62%
29-Jun-2024 00:00Overcast Clouds13°C9 mph, S96%10000m1013hPa70%
29-Jun-2024 03:00Overcast Clouds12°C9 mph, S95%10000m1012hPa76%
29-Jun-2024 06:00Overcast Clouds13°C9 mph, S97%10000m1011hPa78%
29-Jun-2024 09:00Overcast Clouds16°C9 mph, S100%10000m1009hPa74%
29-Jun-2024 12:00Light Rain15°C9 mph, S100%10000m1008hPa93%
29-Jun-2024 15:00Light Rain15°C4 mph, SW100%10000m1007hPa96%
29-Jun-2024 18:00Light Rain16°C7 mph, SW100%10000m1005hPa91%
29-Jun-2024 21:00Light Rain12°C7 mph, NW99%10000m1007hPa93%
30-Jun-2024 00:00Overcast Clouds11°C4 mph, W98%10000m1006hPa85%
30-Jun-2024 03:00Overcast Clouds11°C7 mph, NW93%10000m1006hPa75%
30-Jun-2024 06:00Broken Clouds12°C7 mph, NW60%10000m1006hPa77%
30-Jun-2024 09:00Light Rain15°C11 mph, W60%10000m1005hPa63%
30-Jun-2024 12:00Light Rain12°C9 mph, W80%10000m1005hPa87%
30-Jun-2024 15:00Light Rain12°C7 mph, SW100%10000m1005hPa92%
30-Jun-2024 18:00Light Rain11°C7 mph, SW100%10000m1004hPa92%
30-Jun-2024 21:00Light Rain11°C7 mph, SW100%10000m1004hPa95%